Flight Track Log - Related Links

Times and Time Zones

All times are in EDT time to prevent confusion due to time zone crossing. See the RPA3396 flight status page for this flight to view local times or setup timezone preferences in your user account.

Time Position Orientation Groundspeed Altitude Reporting Facility
EDT Latitude Longitude Course Direction KTS MPH feet Rate Location/Type
Fri 12:49:27 PM 44.9333 -93.2500 117° Southeast 187 215 2,700  Level Minneapolis TRACON
Fri 12:49:44 PM 44.9478 -93.2425 20° North 196 226 2,900 1,975 Climbing Minneapolis Center
Fri 12:50:46 PM 45.0183 -93.2389 North 258 297 5,300 2,516 Climbing Minneapolis Center
Fri 12:51:00 PM 44.7185 -92.6277 113° Southeast  Level Estimated
Fri 12:51:48 PM 45.0722 -93.1622 45° Northeast 282 325 8,100  Level Minneapolis Center
Fri 12:52:00 PM 44.6558 -92.4955 124° Southeast  Level FlightAware Approximate
Fri 12:52:50 PM 45.0289 -93.0442 117° Southeast 296 341 11,100  Level Minneapolis Center
Fri 12:53:00 PM 44.6027 -92.3447 117° Southeast  Level FlightAware Approximate
Fri 12:53:52 PM 44.9764 -92.9417 126° Southeast 317 365 13,300  Level Minneapolis Center
Fri 12:54:00 PM 44.5512 -92.2034 117° Southeast  Level FlightAware Approximate
Fri 12:54:54 PM 44.9272 -92.8239 120° Southeast 344 396 15,300  Level Minneapolis Center
Fri 12:55:57 PM 44.8747 -92.7017 121° Southeast 360 414 17,300 1,872 Climbing Minneapolis Center
Fri 12:56:59 PM 44.8208 -92.5764 121° Southeast 371 427 19,200 1,887 Climbing Minneapolis Center
Fri 12:58:01 PM 44.7647 -92.4469 121° Southeast 383 441 21,200 1,887 Climbing Minneapolis Center
Fri 12:59:03 PM 44.6944 -92.2875 122° Southeast 395 455 23,100 1,667 Climbing Minneapolis Center
Fri 01:00:07 PM 44.6344 -92.1500 121° Southeast 408 470 24,700 1,476 Climbing Minneapolis Center
Fri 01:01:09 PM 44.5733 -92.0089 121° Southeast 420 483 26,200 1,306 Climbing Minneapolis Center
Fri 01:02:11 PM 44.5114 -91.8672 121° Southeast 425 489 27,400 1,161 Climbing Minneapolis Center
Fri 01:03:13 PM 44.4467 -91.7231 122° Southeast 435 501 28,600 1,161 Climbing Minneapolis Center
Fri 01:04:15 PM 44.3683 -91.5458 122° Southeast 444 511 29,800 1,016 Climbing Minneapolis Center
Fri 01:05:17 PM 44.3022 -91.3978 122° Southeast 450 518 30,700 919 Climbing Minneapolis Center
Fri 01:06:19 PM 44.2344 -91.2458 122° Southeast 454 522 31,700 871 Climbing Minneapolis Center
Fri 01:07:21 PM 44.1667 -91.0961 122° Southeast 458 527 32,500 774 Climbing Minneapolis Center
Fri 01:08:23 PM 44.0986 -90.9472 122° Southeast 458 527 33,300 774 Climbing Minneapolis Center
Fri 01:09:25 PM 44.0308 -90.7953 122° Southeast 462 532 34,100 774 Climbing Minneapolis Center
Fri 01:10:27 PM 43.9639 -90.6478 122° Southeast 458 527 34,900 435 Climbing Minneapolis Center
Fri 01:11:29 PM 43.8850 -90.4736 122° Southeast 456 525 35,000 48 Climbing Minneapolis Center
Fri 01:12:31 PM 43.8158 -90.3256 123° Southeast 457 526 35,000  Level Minneapolis Center
Fri 01:13:33 PM 43.7472 -90.1819 123° Southeast 449 517 35,000  Level Minneapolis Center
Fri 01:14:35 PM 43.6717 -90.0111 121° Southeast 447 514 35,000  Level Minneapolis Center
Fri 01:15:37 PM 43.6428 -89.8419 103° East 452 520 35,000  Level Minneapolis Center
Fri 01:16:40 PM 43.6139 -89.6733 103° East 452 520 35,000  Level Minneapolis Center
Fri 01:17:42 PM 43.5825 -89.5017 104° East 456 525 35,000  Level Minneapolis Center
Fri 01:18:44 PM 43.5517 -89.3303 104° East 459 528 35,000  Level Minneapolis Center
Fri 01:19:46 PM 43.5206 -89.1606 104° East 459 528 35,000  Level Minneapolis Center
Fri 01:20:48 PM 43.4842 -88.9633 104° East 457 526 35,000  Level Minneapolis Center
Fri 01:21:50 PM 43.4533 -88.7950 104° East 455 524 35,000  Level Minneapolis Center
Fri 01:22:52 PM 43.4219 -88.6283 104° East 454 522 35,000  Level Minneapolis Center
Fri 01:23:54 PM 43.3919 -88.4711 105° East 455 524 35,000  Level Minneapolis Center
Fri 01:24:56 PM 43.3544 -88.2753 105° East 454 522 35,000  Level Minneapolis Center
Fri 01:25:58 PM 43.3231 -88.1114 105° East 447 514 35,000  Level Minneapolis Center
Fri 01:27:00 PM 43.2914 -87.9458 105° East 448 516 35,000  Level Minneapolis Center
Fri 01:28:15 PM 43.2481 -87.7244 105° East 450 518 35,000  Level Chicago Center
Fri 01:29:17 PM 43.2156 -87.5583 105° East 452 520 35,000  Level Chicago Center
Fri 01:30:20 PM 43.1831 -87.3939 105° East 448 516 35,000  Level Chicago Center
Fri 01:31:22 PM 43.1494 -87.2281 105° East 451 519 35,000  Level Chicago Center
Fri 01:32:24 PM 43.1167 -87.0614 105° East 452 520 35,000  Level Chicago Center
Fri 01:33:26 PM 43.0761 -86.8647 106° East 459 528 35,000  Level Chicago Center
Fri 01:35:30 PM 43.0075 -86.5300 106° East 458 527 35,000  Level Chicago Center
Fri 01:36:32 PM 42.9731 -86.3658 106° East 453 521 35,000  Level Chicago Center
Fri 01:37:34 PM 42.9333 -86.1833 106° East 449 517 35,000  Level Chicago Center
Fri 01:38:36 PM 42.8986 -86.0181 106° East 452 520 35,000  Level Chicago Center
Fri 01:39:38 PM 42.8639 -85.8531 106° East 452 520 35,000  Level Chicago Center
Fri 01:40:40 PM 42.8272 -85.6872 107° East 454 522 35,000  Level Chicago Center
Fri 01:41:43 PM 42.7914 -85.5203 106° East 457 526 35,000  Level Chicago Center
Fri 01:42:45 PM 42.7408 -85.3669 114° Southeast 448 516 35,000  Level Chicago Center
Fri 01:43:47 PM 42.6781 -85.1875 115° Southeast 440 506 35,000  Level Chicago Center
Fri 01:44:49 PM 42.6258 -85.0394 116° Southeast 437 503 35,000  Level Chicago Center
Fri 01:45:51 PM 42.5717 -84.8908 116° Southeast 438 504 35,000  Level Chicago Center
Fri 01:46:53 PM 42.5025 -84.7656 127° Southeast 414 476 35,000  Level Chicago Center
Fri 01:47:55 PM 42.4300 -84.6425 129° Southeast 414 476 35,000  Level Chicago Center
Fri 01:48:57 PM 42.3567 -84.5194 129° Southeast 418 481 35,000  Level Chicago Center
Fri 01:49:59 PM 42.2864 -84.4008 129° Southeast 408 470 35,000  Level Chicago Center
Fri 01:50:32 PM 42.2308 -84.3131 131° Southeast 416 479 35,000  Level Cleveland Center
Fri 01:51:32 PM 42.1594 -84.1942 129° Southeast 411 473 35,000  Level Cleveland Center
Fri 01:52:32 PM 42.0881 -84.0753 129° Southeast 411 473 35,000  Level Cleveland Center
Fri 01:53:32 PM 42.0167 -83.9594 130° Southeast 411 473 35,000  Level Cleveland Center
Fri 01:54:32 PM 41.9450 -83.8411 129° Southeast 411 473 35,000  Level Cleveland Center
Fri 01:55:32 PM 41.8731 -83.7261 130° Southeast 411 473 35,000  Level Cleveland Center
Fri 01:56:32 PM 41.8033 -83.6083 128° Southeast 411 473 35,000  Level Cleveland Center
Fri 01:57:32 PM 41.7314 -83.4908 129° Southeast 411 473 35,000  Level Cleveland Center
Fri 01:58:32 PM 41.6592 -83.3736 129° Southeast 411 473 35,000  Level Cleveland Center
Fri 01:59:32 PM 41.5869 -83.2567 130° Southeast 411 473 35,000  Level Cleveland Center
Fri 02:00:32 PM 41.5167 -83.1400 129° Southeast 411 473 35,000  Level Cleveland Center
Fri 02:01:32 PM 41.4442 -83.0236 130° Southeast 404 465 35,000  Level Cleveland Center
Fri 02:02:32 PM 41.3714 -82.9075 130° Southeast 404 465 35,000  Level Cleveland Center
Fri 02:03:32 PM 41.2986 -82.7942 131° Southeast 411 473 35,000  Level Cleveland Center
Fri 02:04:32 PM 41.2278 -82.6814 130° Southeast 411 473 35,000  Level Cleveland Center
Fri 02:05:32 PM 41.1608 -82.5744 130° Southeast 411 473 35,000  Level Cleveland Center
Fri 02:06:32 PM 41.0897 -82.4619 130° Southeast 411 473 35,000  Level Cleveland Center
Fri 02:07:32 PM 41.0167 -82.3472 130° Southeast 411 473 35,000  Level Cleveland Center
Fri 02:08:32 PM 40.9433 -82.2353 131° Southeast 411 473 35,000  Level Cleveland Center
Fri 02:09:32 PM 40.8678 -82.1206 131° Southeast 411 473 35,000  Level Cleveland Center
Fri 02:10:32 PM 40.7961 -82.0067 130° Southeast 411 473 35,000  Level Cleveland Center
Fri 02:11:32 PM 40.7247 -81.8928 130° Southeast 411 473 35,000  Level Cleveland Center
Fri 02:12:32 PM 40.6508 -81.7789 131° Southeast 411 473 35,000  Level Cleveland Center
Fri 02:13:32 PM 40.5769 -81.6656 131° Southeast 411 473 35,000  Level Cleveland Center
Fri 02:14:32 PM 40.5028 -81.5525 131° Southeast 411 473 35,000  Level Cleveland Center
Fri 02:15:32 PM 40.4331 -81.4342 128° Southeast 411 473 35,000  Level Cleveland Center
Fri 02:16:32 PM 40.3650 -81.2942 123° Southeast 411 473 35,000  Level Cleveland Center
Fri 02:17:32 PM 40.2992 -81.1739 126° Southeast 411 473 35,000  Level Cleveland Center
Fri 02:18:32 PM 40.2331 -81.0481 125° Southeast 411 473 35,000 -200 Level Cleveland Center
Fri 02:19:32 PM 40.1667 -80.9200 124° Southeast 416 479 34,600 -550 Descending Cleveland Center
Fri 02:20:32 PM 40.1003 -80.7947 125° Southeast 416 479 33,900 -700 Descending Cleveland Center
Fri 02:21:32 PM 40.0339 -80.6697 125° Southeast 416 479 33,200 -450 Descending Cleveland Center
Fri 02:22:32 PM 39.9650 -80.5425 125° Southeast 422 486 33,000 -60 Descending Cleveland Center
Fri 02:24:52 PM 39.8111 -80.2539 125° Southeast 414 476 33,000 -597 Level Washington Center
Fri 02:25:53 PM 39.7428 -80.1308 126° Southeast 414 476 31,000  Descending Washington Center
Fri 02:26:52 PM 39.6767 -80.0078 125° Southeast 414 476 33,000 1,008 Climbing Washington Center
Fri 02:27:52 PM 39.6061 -79.8825 126° Southeast 420 483 33,000 -443 Level Washington Center
Fri 02:28:54 PM 39.5375 -79.7572 125° Southeast 420 483 32,100 -984 Descending Washington Center
Fri 02:29:54 PM 39.4708 -79.6322 125° Southeast 420 483 31,000 -550 Descending Washington Center
Fri 02:30:54 PM 39.4214 -79.4897 114° Southeast 420 483 31,000  Level Washington Center
Fri 02:31:52 PM 39.3889 -79.3350 105° East 425 489 31,000 -555 Level Washington Center
Fri 02:32:53 PM 39.3575 -79.1992 107° East 431 496 29,900 -1,672 Descending Washington Center
Fri 02:33:54 PM 39.3225 -79.0472 107° East 431 496 27,600 -2,300 Descending Washington Center
Fri 02:34:53 PM 39.2869 -78.8981 107° East 436 502 25,300 -2,300 Descending Washington Center
Fri 02:35:54 PM 39.2533 -78.7517 106° East 436 502 23,000 -2,231 Descending Washington Center
Fri 02:36:54 PM 39.2217 -78.6111 106° East 423 487 20,800 -2,168 Descending Washington Center
Fri 02:37:53 PM 39.1894 -78.4731 107° East 412 474 18,700 -2,000 Descending Washington Center
Fri 02:38:54 PM 39.1572 -78.3381 107° East 404 465 16,800 -1,438 Descending Washington Center
Fri 02:39:54 PM 39.1267 -78.2139 108° East 384 442 15,800 -1,017 Descending Washington Center
Fri 02:40:52 PM 39.0939 -78.0869 108° East 378 435 14,800 -1,059 Descending Washington Center
Fri 02:41:53 PM 39.0611 -77.9600 108° East 373 429 13,700 -1,190 Descending Washington Center
Fri 02:42:53 PM 39.0319 -77.8417 108° East 360 414 12,400 -1,361 Descending Washington Center
Fri 02:43:52 PM 38.9989 -77.7178 109° East 343 395 11,000 -857 Descending Washington Center
Fri 02:44:52 PM 38.9733 -77.6208 109° East 324 373 10,700 -759 Descending Washington Center
Fri 02:45:19 PM 38.9500 -77.5667 119° Southeast 306 352 9,900 -1,517 Descending Potomac TRACON
Fri 02:46:19 PM 38.9167 -77.4667 113° Southeast 285 328 8,500 -1,400 Descending Potomac TRACON
Fri 02:47:19 PM 38.8833 -77.3833 117° Southeast 282 325 7,100 -1,263 Descending Potomac TRACON
Fri 02:48:13 PM 38.8500 -77.3000 117° Southeast 271 312 6,100 -579 Descending Potomac TRACON
Fri 02:49:13 PM 38.8167 -77.2333 123° Southeast 266 306 6,000 -94 Descending Potomac TRACON
Fri 02:50:20 PM 38.7667 -77.1333 123° Southeast 243 280 5,900 -94 Descending Potomac TRACON
Fri 02:51:20 PM 38.7167 -77.1167 165° South 224 258 5,800 -737 Descending Potomac TRACON
Fri 02:52:14 PM 38.6667 -77.1000 165° South 225 259 4,500 -991 Descending Potomac TRACON
Fri 02:53:15 PM 38.6333 -77.0667 142° Southeast 196 226 3,900 -843 Descending Potomac TRACON
Fri 02:54:15 PM 38.6500 -77.0333 57° Northeast 150 173 2,800 -700 Descending Potomac TRACON
Fri 02:55:15 PM 38.7000 -77.0167 15° North 145 167 2,500 -350 Descending Potomac TRACON
Fri 02:56:15 PM 38.7333 -77.0333 339° North 141 162 2,100 -400 Descending Potomac TRACON

Login

Don't have an account? Register now (free) for customized features, flight alerts, and more!